Time;durP1;ratioP1;P1;durP2;ratioP2;P2;SDS_P1;SDS_P2;PMS_P1;PMS_P2;Temp;Humidity;BMP_temperature;BMP_pressure;BME280_temperature;BME280_humidity;BME280_pressure;Samples;Min_cycle;Max_cycle;Signal;HPM_P1;HPM_P2
2021/01/31 00:00:50;;;;;;;41.83;17.48;;;;;;;-2.74;90.71;100540.25;5057615;28;20025;-78
2021/01/31 00:03:22;;;;;;;40.65;17.77;;;;;;;-2.79;90.46;100537.41;5062897;28;20029;-77
2021/01/31 00:05:50;;;;;;;42.27;18.17;;;;;;;-2.75;90.62;100544.41;5066513;28;20601;-78
2021/01/31 00:08:17;;;;;;;42.27;17.30;;;;;;;-2.77;90.82;100545.06;5063660;28;20082;-78
2021/01/31 00:10:43;;;;;;;40.33;18.47;;;;;;;-2.81;90.69;100543.97;5057819;28;20119;-77
2021/01/31 00:13:09;;;;;;;42.22;18.42;;;;;;;-2.85;91.11;100554.56;5060450;28;20120;-77
2021/01/31 00:15:38;;;;;;;38.77;18.27;;;;;;;-2.86;91.24;100562.88;5061341;28;20025;-78
2021/01/31 00:18:05;;;;;;;47.33;20.00;;;;;;;-2.88;91.36;100566.91;5061603;28;20021;-78
2021/01/31 00:20:33;;;;;;;42.50;18.53;;;;;;;-2.92;91.46;100562.44;5062122;28;20078;-78
2021/01/31 00:22:59;;;;;;;42.17;18.23;;;;;;;-2.96;91.67;100566.34;5061496;28;20033;-77
2021/01/31 00:25:24;;;;;;;54.45;20.48;;;;;;;-2.97;91.85;100566.22;5058733;28;20020;-77
2021/01/31 00:27:50;;;;;;;52.03;20.80;;;;;;;-2.99;92.04;100567.75;5052594;28;20075;-77
2021/01/31 00:30:16;;;;;;;;;;;;;;;-3.00;91.71;100568.53;5056732;28;20021;-77
2021/01/31 00:32:41;;;;;;;45.77;19.57;;;;;;;-3.02;91.62;100562.50;5068731;28;19926;-79
2021/01/31 00:35:08;;;;;;;48.78;20.23;;;;;;;-3.05;91.73;100574.84;5059758;28;20105;-78
2021/01/31 00:37:33;;;;;;;49.97;21.70;;;;;;;-3.07;91.86;100573.88;5067215;28;20035;-78
2021/01/31 00:39:58;;;;;;;52.03;23.30;;;;;;;-3.07;91.59;100568.84;5059118;28;20032;-77
2021/01/31 00:42:24;;;;;;;51.45;21.63;;;;;;;-3.11;92.00;100575.28;5088044;22;20052;-73
2021/01/31 00:44:51;;;;;;;52.55;20.85;;;;;;;-3.13;91.80;100582.72;5045629;28;20033;-74
2021/01/31 00:47:18;;;;;;;51.73;21.53;;;;;;;-3.15;91.72;100580.84;5049097;28;20028;-74
2021/01/31 00:49:44;;;;;;;49.50;21.23;;;;;;;-3.16;92.02;100586.63;5052033;28;20028;-74
2021/01/31 00:52:10;;;;;;;54.10;22.10;;;;;;;-3.21;92.14;100580.41;5053340;28;20045;-72
2021/01/31 00:54:35;;;;;;;58.58;23.13;;;;;;;-3.22;92.00;100584.56;5035726;28;20055;-73
2021/01/31 00:57:01;;;;;;;52.30;22.55;;;;;;;-3.22;91.92;100593.72;5054021;28;20071;-73
2021/01/31 00:59:26;;;;;;;52.92;20.55;;;;;;;-3.22;92.55;100588.72;5035310;28;20036;-74
2021/01/31 01:01:51;;;;;;;50.88;20.65;;;;;;;-3.24;92.42;100593.63;5035201;28;20016;-73
2021/01/31 01:04:16;;;;;;;51.28;20.98;;;;;;;-3.24;92.62;100601.16;5053197;28;20506;-73
2021/01/31 01:06:42;;;;;;;58.75;22.67;;;;;;;-3.29;92.50;100601.53;5053037;28;20029;-73
2021/01/31 01:09:07;;;;;;;53.20;21.70;;;;;;;-3.28;92.28;100596.63;5051984;28;20119;-73
2021/01/31 01:11:32;;;;;;;51.80;21.17;;;;;;;-3.30;92.40;100592.25;5052604;28;20032;-74
2021/01/31 01:13:58;;;;;;;59.35;22.77;;;;;;;-3.31;92.20;100603.06;5034713;28;20420;-74
2021/01/31 01:16:23;;;;;;;69.05;23.83;;;;;;;-3.34;92.66;100598.69;5034689;28;20031;-73
2021/01/31 01:18:48;;;;;;;58.05;22.42;;;;;;;-3.34;92.72;100602.84;5034668;28;20403;-73
2021/01/31 01:21:15;;;;;;;54.13;22.10;;;;;;;-3.35;91.91;100607.00;5034366;28;20041;-74
2021/01/31 01:23:41;;;;;;;54.47;23.00;;;;;;;-3.39;92.38;100601.63;5034308;28;20025;-73
2021/01/31 01:26:07;;;;;;;55.08;21.48;;;;;;;-3.36;92.53;100612.78;5034310;28;20024;-73
2021/01/31 01:28:32;;;;;;;60.45;24.00;;;;;;;-3.36;92.62;100601.84;5034931;28;20025;-71
2021/01/31 01:30:58;;;;;;;52.25;22.63;;;;;;;-3.37;92.05;100595.97;5034384;28;20029;-72
2021/01/31 01:33:23;;;;;;;53.88;21.77;;;;;;;-3.40;92.51;100593.22;5052245;28;20120;-74
2021/01/31 01:35:48;;;;;;;53.83;22.00;;;;;;;-3.43;92.39;100595.50;5052216;28;20029;-73
2021/01/31 01:38:13;;;;;;;54.75;23.42;;;;;;;-3.42;92.63;100593.88;5034350;28;20025;-74
2021/01/31 01:40:40;;;;;;;59.35;24.08;;;;;;;-3.46;92.20;100587.75;5033969;28;20032;-74
2021/01/31 01:43:12;;;;;;;59.33;23.80;;;;;;;-3.47;92.40;100586.88;5051917;28;20044;-73
2021/01/31 01:45:37;;;;;;;58.87;23.57;;;;;;;-3.48;92.50;100589.28;5052298;28;20025;-73
2021/01/31 01:48:11;;;;;;;54.25;23.25;;;;;;;-3.51;92.17;100589.03;5052290;28;20017;-73
2021/01/31 01:50:41;;;;;;;61.93;23.57;;;;;;;-3.50;92.61;100590.78;5033914;28;20115;-73
2021/01/31 01:53:08;;;;;;;55.23;23.73;;;;;;;-3.46;92.58;100588.63;5052070;28;20096;-74
2021/01/31 01:55:41;;;;;;;58.63;23.97;;;;;;;-3.54;92.37;100584.69;5052060;28;20039;-73
2021/01/31 01:58:15;;;;;;;53.90;22.17;;;;;;;-3.53;92.58;100583.03;5034672;28;20043;-74
2021/01/31 02:00:44;;;;;;;55.63;21.93;;;;;;;-3.56;92.24;100580.31;5051811;28;20025;-74
2021/01/31 02:03:20;;;;;;;58.87;22.93;;;;;;;-3.61;92.05;100582.44;5051715;28;20506;-73
2021/01/31 02:05:58;;;;;;;54.33;22.85;;;;;;;-3.60;92.77;100573.28;5034345;28;20037;-74
2021/01/31 02:08:23;;;;;;;55.57;22.43;;;;;;;-3.59;92.52;100575.03;5052492;28;20444;-74
2021/01/31 02:10:49;;;;;;;50.65;21.80;;;;;;;-3.65;92.83;100577.06;5051273;28;20028;-73
2021/01/31 02:13:14;;;;;;;53.08;22.33;;;;;;;-3.62;92.72;100584.84;5034504;28;20021;-74
2021/01/31 02:15:39;;;;;;;55.72;24.30;;;;;;;-3.66;92.74;100586.25;5051038;28;20391;-74
2021/01/31 02:18:22;;;;;;;55.67;22.20;;;;;;;-3.69;92.73;100592.66;5051987;28;20029;-74
2021/01/31 02:21:05;;;;;;;54.10;22.30;;;;;;;-3.65;92.82;100584.59;5051768;28;20031;-73
2021/01/31 02:23:49;;;;;;;57.30;23.00;;;;;;;-3.68;92.71;100576.84;5051789;28;20025;-74
2021/01/31 02:26:33;;;;;;;58.87;24.20;;;;;;;-3.71;92.65;100574.97;5051732;28;20032;-74
2021/01/31 02:29:06;;;;;;;53.10;22.73;;;;;;;-3.71;92.72;100586.66;5052019;28;20028;-74
2021/01/31 02:32:23;;;;;;;59.10;22.33;;;;;;;-3.74;92.60;100588.94;5051466;28;20024;-74
2021/01/31 02:34:57;;;;;;;57.07;22.27;;;;;;;-3.73;92.62;100581.53;4980857;28;20044;-72
2021/01/31 02:37:31;;;;;;;58.33;23.13;;;;;;;-3.79;93.26;100576.94;5051199;28;20067;-73
2021/01/31 02:40:09;;;;;;;57.40;22.80;;;;;;;-3.80;93.07;100579.31;5032646;28;20048;-72
2021/01/31 02:42:41;;;;;;;61.13;23.50;;;;;;;-3.79;92.69;100568.53;5050978;28;20108;-74
2021/01/31 02:45:19;;;;;;;58.80;22.60;;;;;;;-3.82;92.69;100569.16;5033348;28;20337;-74
2021/01/31 02:47:57;;;;;;;55.70;22.80;;;;;;;-3.80;93.11;100565.13;5033483;28;20055;-73
2021/01/31 02:50:28;;;;;;;53.80;21.90;;;;;;;-3.85;92.88;100561.41;5051265;28;20031;-74
2021/01/31 02:53:03;;;;;;;55.70;21.43;;;;;;;-3.85;92.62;100566.44;5047829;28;20444;-74
2021/01/31 02:55:38;;;;;;;65.03;25.10;;;;;;;-3.88;93.24;100563.69;5033685;28;20029;-74
2021/01/31 02:58:16;;;;;;;54.10;22.47;;;;;;;-3.87;92.86;100557.91;5051408;28;20029;-73
2021/01/31 03:00:50;;;;;;;53.53;22.33;;;;;;;-3.95;93.05;100551.41;5032036;28;20506;-74
2021/01/31 03:04:03;;;;;;;55.07;22.60;;;;;;;-4.00;92.85;100545.16;5032694;28;20024;-74
2021/01/31 03:06:31;;;;;;;54.40;22.93;;;;;;;-4.02;93.14;100549.19;5006844;28;20041;-73
2021/01/31 03:09:08;;;;;;;57.67;23.07;;;;;;;-4.00;93.22;100557.72;5032627;28;20040;-73
2021/01/31 03:11:41;;;;;;;51.80;21.83;;;;;;;-4.02;92.89;100565.88;5050730;28;20028;-74
2021/01/31 03:14:12;;;;;;;59.20;23.20;;;;;;;-4.06;93.34;100567.28;5032404;28;20009;-73
2021/01/31 03:16:56;;;;;;;60.07;23.87;;;;;;;-4.06;93.58;100569.78;5032572;28;20421;-74
2021/01/31 03:19:27;;;;;;;54.10;22.03;;;;;;;-4.08;93.29;100578.84;5050364;28;20366;-73
2021/01/31 03:21:59;;;;;;;60.53;24.47;;;;;;;-4.13;93.25;100572.59;5032530;28;20723;-73
2021/01/31 03:24:39;;;;;;;52.73;21.70;;;;;;;-4.11;93.30;100571.97;5050180;28;20441;-73
2021/01/31 03:27:19;;;;;;;52.17;23.33;;;;;;;-4.16;93.20;100574.88;5031391;28;20046;-72
2021/01/31 03:29:44;;;;;;;57.27;22.30;;;;;;;-4.16;93.31;100577.38;5032883;28;20121;-74
2021/01/31 03:32:16;;;;;;;63.63;24.27;;;;;;;-4.16;93.17;100572.38;5050491;28;20105;-72
2021/01/31 03:35:02;;;;;;;63.07;24.33;;;;;;;-4.15;93.30;100574.13;5032831;28;20033;-74
2021/01/31 03:37:48;;;;;;;63.50;24.60;;;;;;;-4.14;93.46;100571.72;5032982;28;20637;-73
2021/01/31 03:40:15;;;;;;;58.40;22.40;;;;;;;-4.16;93.12;100568.22;5051143;28;20371;-74
2021/01/31 03:42:43;;;;;;;55.57;22.07;;;;;;;-4.14;93.50;100569.22;5050421;28;20025;-74
2021/01/31 03:45:10;;;;;;;57.20;23.60;;;;;;;-4.17;93.01;100573.13;5051115;28;20575;-74
2021/01/31 03:47:39;;;;;;;58.70;23.77;;;;;;;-4.18;93.52;100568.88;5032949;28;20116;-74
2021/01/31 03:50:05;;;;;;;57.17;22.10;;;;;;;-4.20;93.48;100575.41;5032823;28;20032;-74
2021/01/31 03:52:31;;;;;;;61.60;22.80;;;;;;;-4.22;92.99;100572.78;5050818;28;20629;-74
2021/01/31 03:54:58;;;;;;;60.83;23.70;;;;;;;-4.22;93.08;100577.78;5051129;28;20024;-74
2021/01/31 03:57:32;;;;;;;56.50;22.97;;;;;;;-4.23;93.17;100583.56;5050521;28;20033;-73
2021/01/31 04:00:13;;;;;;;57.47;23.40;;;;;;;-4.23;93.81;100578.53;5050898;28;20757;-74
2021/01/31 04:02:51;;;;;;;55.10;22.63;;;;;;;-4.25;93.34;100576.66;5033210;28;20024;-74
2021/01/31 04:05:18;;;;;;;53.17;20.87;;;;;;;-4.24;93.51;100580.91;5051012;28;20033;-74
2021/01/31 04:07:47;;;;;;;59.47;25.10;;;;;;;-4.27;93.70;100578.16;5050470;28;20032;-74
2021/01/31 04:10:14;;;;;;;61.13;24.83;;;;;;;-4.29;93.25;100588.06;5033051;28;20036;-74
2021/01/31 04:12:45;;;;;;;60.63;24.63;;;;;;;-4.21;93.50;100586.19;5050746;28;20270;-74
2021/01/31 04:15:39;;;;;;;53.87;22.80;;;;;;;-4.25;93.54;100589.19;5051418;28;20108;-74
2021/01/31 04:18:05;;;;;;;56.80;23.63;;;;;;;-4.27;93.55;100586.56;5029075;28;20036;-74
2021/01/31 04:20:32;;;;;;;60.38;22.70;;;;;;;-4.27;93.23;100578.16;5051067;28;20065;-74
2021/01/31 04:22:58;;;;;;;68.17;25.83;;;;;;;-4.29;93.32;100579.69;5050859;28;20025;-73
2021/01/31 04:25:23;;;;;;;66.90;25.10;;;;;;;-4.29;93.61;100577.16;5051296;28;20491;-74
2021/01/31 04:27:48;;;;;;;61.55;23.45;;;;;;;-4.33;93.59;100577.69;5034508;28;20028;-74
2021/01/31 04:30:14;;;;;;;60.63;22.73;;;;;;;-4.33;93.34;100578.56;5051495;28;20391;-74
2021/01/31 04:32:39;;;;;;;63.10;22.90;;;;;;;-4.31;93.32;100578.69;5033886;28;20017;-74
2021/01/31 04:35:09;;;;;;;61.97;23.63;;;;;;;-4.35;93.08;100584.22;5051665;28;20028;-74
2021/01/31 04:37:35;;;;;;;54.93;22.20;;;;;;;-4.37;93.76;100586.59;5052100;28;20096;-74
2021/01/31 04:40:04;;;;;;;60.35;24.23;;;;;;;-4.42;93.42;100581.25;5055490;28;20548;-74
2021/01/31 04:42:29;;;;;;;60.40;23.70;;;;;;;-4.43;93.83;100587.00;5037688;28;20033;-74
2021/01/31 04:44:54;;;;;;;62.28;22.65;;;;;;;-4.39;93.66;100589.00;5056087;28;20029;-74
2021/01/31 04:47:28;;;;;;;54.80;22.80;;;;;;;-4.43;93.81;100587.00;5055763;28;20506;-74
2021/01/31 04:50:14;;;;;;;53.13;21.77;;;;;;;-4.44;93.61;100579.38;5037401;28;20479;-74
2021/01/31 04:53:01;;;;;;;62.17;24.50;;;;;;;-4.45;93.29;100578.50;5054825;28;20025;-74
2021/01/31 04:55:38;;;;;;;64.10;24.97;;;;;;;-4.45;94.19;100591.03;5036071;28;20032;-74
2021/01/31 04:58:03;;;;;;;65.10;24.42;;;;;;;-4.45;93.81;100600.19;5055610;28;20656;-73
2021/01/31 05:00:32;;;;;;;61.13;23.83;;;;;;;-4.44;93.50;100606.94;5053955;28;20108;-72
2021/01/31 05:03:00;;;;;;;55.93;22.00;;;;;;;-4.44;93.29;100600.31;5051180;28;20025;-74
2021/01/31 05:05:57;;;;;;;59.83;23.60;;;;;;;-4.46;93.74;100593.41;5051156;28;20326;-74
2021/01/31 05:08:25;;;;;;;49.80;20.25;;;;;;;-4.49;93.46;100591.53;5015260;28;20049;-73
2021/01/31 05:11:03;;;;;;;58.20;22.77;;;;;;;-4.50;93.77;100594.81;5033257;28;20112;-74
2021/01/31 05:13:48;;;;;;;62.93;23.13;;;;;;;-4.51;93.45;100592.19;5054743;28;20029;-74
2021/01/31 05:16:15;;;;;;;62.93;24.47;;;;;;;-4.48;93.48;100604.97;5036921;28;20037;-74
2021/01/31 05:18:53;;;;;;;58.57;23.60;;;;;;;-4.52;93.66;100592.94;5036501;28;20385;-75
2021/01/31 05:21:23;;;;;;;62.73;23.43;;;;;;;-4.56;93.63;100594.28;5054463;28;20028;-74
2021/01/31 05:23:52;;;;;;;55.93;23.03;;;;;;;-4.58;93.63;100590.78;5037188;28;20341;-74
2021/01/31 05:26:18;;;;;;;57.37;23.23;;;;;;;-4.57;93.69;100587.53;5054780;28;20078;-73
2021/01/31 05:28:50;;;;;;;60.63;23.63;;;;;;;-4.52;93.94;100596.31;5055251;28;20020;-74
2021/01/31 05:31:16;;;;;;;58.37;22.60;;;;;;;-4.56;93.41;100599.31;5054790;28;20031;-74
2021/01/31 05:34:10;;;;;;;53.88;22.83;;;;;;;-4.59;94.16;100586.53;5035976;28;20055;-74
2021/01/31 05:36:36;;;;;;;57.37;21.57;;;;;;;-4.59;93.72;100589.03;5052449;28;20032;-75
2021/01/31 05:39:02;;;;;;;55.25;22.73;;;;;;;-4.59;93.90;100586.53;5054904;28;20033;-74
2021/01/31 05:41:33;;;;;;;58.93;22.87;;;;;;;-4.64;93.74;100590.31;5054518;28;20028;-74
2021/01/31 05:44:02;;;;;;;61.77;24.80;;;;;;;-4.62;94.06;100587.94;5036774;28;20314;-74
2021/01/31 05:46:47;;;;;;;61.10;24.30;;;;;;;-4.63;93.61;100584.56;5036665;28;20279;-74
2021/01/31 05:49:40;;;;;;;63.43;24.97;;;;;;;-4.69;93.89;100579.06;5053071;28;20275;-74
2021/01/31 05:52:18;;;;;;;60.17;22.70;;;;;;;-4.69;93.60;100584.06;5034265;28;20696;-75
2021/01/31 05:54:43;;;;;;;57.50;21.07;;;;;;;-4.67;93.98;100584.19;5054734;28;20274;-74
2021/01/31 05:57:26;;;;;;;55.65;21.98;;;;;;;-4.72;93.57;100596.38;5054042;28;20271;-74
2021/01/31 05:59:52;;;;;;;59.73;21.80;;;;;;;-4.75;93.45;100586.97;5054287;28;20032;-74
2021/01/31 06:02:21;;;;;;;59.72;22.90;;;;;;;-4.76;94.08;100604.38;5054143;28;20295;-74
2021/01/31 06:04:47;;;;;;;62.90;23.70;;;;;;;-4.77;93.91;100591.00;5053855;28;20032;-74
2021/01/31 06:07:17;;;;;;;60.60;23.05;;;;;;;-4.78;94.02;100605.91;5053990;28;20271;-74
2021/01/31 06:09:47;;;;;;;55.43;21.87;;;;;;;-4.81;94.07;100608.16;5053828;28;20048;-74
2021/01/31 06:12:24;;;;;;;62.80;22.53;;;;;;;-4.83;94.38;100603.03;5035900;28;20279;-74
2021/01/31 06:15:03;;;;;;;55.37;21.10;;;;;;;-4.82;93.91;100606.41;5053831;28;20025;-74
2021/01/31 06:17:31;;;;;;;53.50;20.83;;;;;;;-4.84;94.14;100596.28;5035618;28;20479;-74
2021/01/31 06:20:01;;;;;;;52.03;20.30;;;;;;;-4.85;94.12;100596.16;5034968;28;20271;-74
2021/01/31 06:22:50;;;;;;;47.83;18.97;;;;;;;-4.82;93.67;100591.38;5034854;28;20029;-74
2021/01/31 06:25:27;;;;;;;52.93;22.03;;;;;;;-4.89;93.77;100587.47;5052769;28;20267;-74
2021/01/31 06:28:15;;;;;;;56.33;20.80;;;;;;;-4.94;93.92;100593.75;5035289;28;20112;-74
2021/01/31 06:30:49;;;;;;;51.87;19.47;;;;;;;-4.89;93.67;100591.63;5034913;28;20279;-74
2021/01/31 06:33:14;;;;;;;54.17;20.40;;;;;;;-4.92;93.70;100602.28;5033683;28;20086;-74
2021/01/31 06:35:40;;;;;;;56.40;21.50;;;;;;;-4.97;93.94;100600.16;5051737;28;20458;-74
2021/01/31 06:38:20;;;;;;;54.38;21.38;;;;;;;-4.99;93.80;100601.66;5051982;28;20078;-74
2021/01/31 06:40:48;;;;;;;58.60;21.27;;;;;;;-5.02;93.99;100597.28;5052158;28;20409;-74
2021/01/31 06:43:30;;;;;;;52.67;19.60;;;;;;;-5.03;93.99;100593.91;5076491;22;20421;-76
2021/01/31 06:46:04;;;;;;;56.13;21.23;;;;;;;-5.03;93.96;100588.88;5064174;28;20106;-78
2021/01/31 06:48:41;;;;;;;52.83;20.70;;;;;;;-5.03;93.80;100578.88;5057627;28;20390;-77
2021/01/31 06:51:28;;;;;;;54.03;22.43;;;;;;;-5.05;93.36;100587.88;5070775;28;20882;-78
2021/01/31 06:54:30;;;;;;;63.13;21.83;;;;;;;-4.97;93.81;100585.13;5074571;28;20258;-76
2021/01/31 06:57:14;;;;;;;50.03;19.77;;;;;;;-4.98;93.79;100581.75;5075227;28;20040;-77
2021/01/31 06:59:53;;;;;;;44.97;19.40;;;;;;;-4.99;93.75;100590.00;5080765;28;20714;-77
2021/01/31 07:02:22;;;;;;;51.07;20.30;;;;;;;-5.02;94.08;100589.75;5052332;28;20346;-78
2021/01/31 07:05:12;;;;;;;53.07;20.23;;;;;;;-4.99;93.78;100589.13;5069246;28;20336;-77
2021/01/31 07:08:05;;;;;;;56.67;21.07;;;;;;;-5.02;93.25;100587.25;5070425;28;20028;-77
2021/01/31 07:10:55;;;;;;;52.23;21.00;;;;;;;-4.97;93.55;100595.13;5068894;28;20285;-78
2021/01/31 07:13:41;;;;;;;53.83;19.67;;;;;;;-4.97;93.70;100597.66;5085858;28;20301;-77
2021/01/31 07:16:18;;;;;;;54.67;20.73;;;;;;;-4.94;93.55;100602.91;5072276;28;20339;-77
2021/01/31 07:18:54;;;;;;;54.67;21.77;;;;;;;-4.97;93.35;100603.53;5070175;28;20764;-76
2021/01/31 07:21:30;;;;;;;54.70;21.48;;;;;;;-4.97;93.30;100610.16;5057663;28;20383;-77
2021/01/31 07:24:01;;;;;;;39.63;16.85;;;;;;;-4.95;93.76;100613.66;5069183;28;20025;-78
2021/01/31 07:26:35;;;;;;;54.33;21.33;;;;;;;-4.94;93.58;100616.28;5089711;28;20482;-77
2021/01/31 07:29:05;;;;;;;50.93;20.70;;;;;;;-4.93;93.50;100624.69;5054723;28;20292;-77
2021/01/31 07:31:43;;;;;;;55.53;23.00;;;;;;;-4.95;93.27;100631.19;5090036;28;20027;-77
2021/01/31 07:34:16;;;;;;;52.23;21.23;;;;;;;-4.93;93.42;100635.59;5088691;28;20020;-77
2021/01/31 07:36:55;;;;;;;63.43;22.47;;;;;;;-4.90;93.64;100639.97;5100472;28;20697;-77
2021/01/31 07:39:32;;;;;;;55.10;21.57;;;;;;;-4.88;93.49;100633.44;5077175;28;20278;-75
2021/01/31 07:41:57;;;;;;;42.97;19.73;;;;;;;-4.81;93.73;100626.56;5067440;28;20275;-77
2021/01/31 07:44:29;;;;;;;43.33;19.10;;;;;;;-4.76;93.34;100631.94;5069910;28;20028;-77
2021/01/31 07:46:57;;;;;;;58.80;21.40;;;;;;;-4.63;93.45;100638.81;5070010;28;20025;-76
2021/01/31 07:49:23;;;;;;;51.87;20.80;;;;;;;-4.61;92.92;100639.81;5089045;28;20020;-78
2021/01/31 07:51:48;;;;;;;56.80;22.45;;;;;;;-4.56;93.20;100641.91;5088381;28;20031;-78
2021/01/31 07:54:23;;;;;;;57.30;22.52;;;;;;;-4.50;92.52;100639.06;5089990;28;20016;-77
2021/01/31 07:56:51;;;;;;;50.33;20.70;;;;;;;-4.52;92.92;100640.56;5088802;28;20119;-77
2021/01/31 07:59:20;;;;;;;56.93;22.80;;;;;;;-4.51;92.32;100639.81;5090202;28;20210;-76
2021/01/31 08:01:47;;;;;;;54.67;21.90;;;;;;;-4.52;92.85;100640.56;5089994;28;20032;-77
2021/01/31 08:04:15;;;;;;;55.77;23.77;;;;;;;-4.45;92.38;100630.25;5082228;28;20696;-76
2021/01/31 08:06:42;;;;;;;54.70;21.70;;;;;;;-4.48;92.25;100627.50;5072354;28;20486;-78
2021/01/31 08:09:07;;;;;;;52.03;20.83;;;;;;;-4.47;92.25;100620.13;5090060;28;20119;-76
2021/01/31 08:11:38;;;;;;;52.40;21.25;;;;;;;-4.49;92.51;100633.28;5089959;28;20106;-77
2021/01/31 08:14:07;;;;;;;50.47;20.77;;;;;;;-4.35;92.29;100636.88;5091347;28;20028;-77
2021/01/31 08:16:47;;;;;;;50.27;21.33;;;;;;;-4.35;92.11;100639.38;5094143;28;20165;-77
2021/01/31 08:19:29;;;;;;;48.77;19.63;;;;;;;-4.13;92.01;100632.78;5092659;28;20027;-77
2021/01/31 08:22:00;;;;;;;50.67;21.67;;;;;;;-4.10;91.89;100628.00;5093759;28;20039;-75
2021/01/31 08:24:57;;;;;;;50.00;20.63;;;;;;;-4.07;91.13;100626.63;5086691;28;20522;-76
2021/01/31 08:27:37;;;;;;;47.13;20.80;;;;;;;-4.02;90.85;100629.47;5073847;28;20068;-77
2021/01/31 08:30:27;;;;;;;50.53;21.00;;;;;;;-3.89;90.97;100617.13;5074002;28;20037;-77
2021/01/31 08:32:59;;;;;;;51.70;22.27;;;;;;;-3.70;90.72;100616.03;5071721;28;20024;-78
2021/01/31 08:35:38;;;;;;;49.80;20.80;;;;;;;-3.63;90.25;100619.09;5068018;28;20274;-77
2021/01/31 08:38:15;;;;;;;48.00;20.70;;;;;;;-3.58;89.71;100607.81;5073546;28;20044;-77
2021/01/31 08:41:01;;;;;;;46.67;21.00;;;;;;;-3.71;89.51;100606.75;5087506;28;20081;-77
2021/01/31 08:43:42;;;;;;;46.67;19.30;;;;;;;-3.88;89.78;100600.44;5079978;28;20390;-77
2021/01/31 08:46:13;;;;;;;50.13;20.27;;;;;;;-3.74;90.28;100596.47;5073490;28;20115;-77
2021/01/31 08:48:38;;;;;;;53.23;21.77;;;;;;;-3.63;91.08;100588.09;5073123;28;20482;-76
2021/01/31 08:51:31;;;;;;;42.47;19.80;;;;;;;-3.55;89.67;100592.09;5085352;28;20106;-76
2021/01/31 08:54:05;;;;;;;49.03;21.23;;;;;;;-3.50;89.31;100585.78;5059103;28;20525;-77
2021/01/31 08:56:38;;;;;;;52.37;21.73;;;;;;;-3.42;89.63;100579.69;5059640;28;20298;-77
2021/01/31 08:59:05;;;;;;;47.80;22.67;;;;;;;-3.37;89.59;100580.03;5091713;28;20273;-78
2021/01/31 09:01:39;;;;;;;47.10;21.37;;;;;;;-3.14;88.90;100572.56;5077645;28;20489;-78
2021/01/31 09:04:08;;;;;;;38.37;18.70;;;;;;;-3.09;88.19;100560.31;5084347;28;20020;-75
2021/01/31 09:06:36;;;;;;;45.60;19.63;;;;;;;-3.15;88.76;100570.81;5074587;28;20044;-76
2021/01/31 09:09:01;;;;;;;44.47;19.93;;;;;;;-3.17;88.61;100569.81;5061025;28;20029;-75
2021/01/31 09:11:27;;;;;;;46.15;20.83;;;;;;;-2.80;88.06;100565.81;5070519;28;20032;-77
2021/01/31 09:13:52;;;;;;;38.08;17.80;;;;;;;-2.06;85.69;100572.75;5070438;28;20021;-75
2021/01/31 09:16:22;;;;;;;36.70;17.13;;;;;;;-1.63;84.13;100566.50;5058035;28;20024;-77
2021/01/31 09:18:48;;;;;;;35.47;17.60;;;;;;;-1.07;81.77;100551.72;5074091;28;20485;-77
2021/01/31 09:21:23;;;;;;;;;;;;;;;-0.68;80.10;100548.34;5077861;28;20043;-76
2021/01/31 09:23:49;;;;;;;32.37;15.87;;;;;;;-0.42;78.14;100551.63;5084011;28;19962;-78
2021/01/31 09:26:15;;;;;;;32.15;16.17;;;;;;;-0.32;77.96;100548.94;5074811;28;20440;-77
2021/01/31 09:28:41;;;;;;;35.72;17.33;;;;;;;-0.46;77.56;100548.03;5081197;28;20067;-78
2021/01/31 09:31:08;;;;;;;33.55;17.17;;;;;;;-0.69;77.64;100550.75;5080029;28;20024;-76
2021/01/31 09:33:39;;;;;;;31.33;16.53;;;;;;;-1.06;79.66;100557.63;5076232;28;20012;-77
2021/01/31 09:36:23;;;;;;;30.80;16.23;;;;;;;-0.69;79.52;100551.63;5066513;28;20016;-77
2021/01/31 09:38:50;;;;;;;33.67;16.90;;;;;;;-0.82;79.58;100548.25;5074681;28;20119;-78
2021/01/31 09:41:19;;;;;;;31.07;15.93;;;;;;;-0.19;77.53;100540.44;5062329;28;20429;-78
2021/01/31 09:43:46;;;;;;;29.53;15.23;;;;;;;0.92;75.35;100534.41;5062816;28;20035;-77
2021/01/31 09:46:15;;;;;;;28.93;16.00;;;;;;;0.55;73.16;100534.81;5081517;28;20040;-78
2021/01/31 09:48:41;;;;;;;32.77;17.30;;;;;;;0.42;76.51;100534.91;5072764;28;20474;-79
2021/01/31 09:51:07;;;;;;;;;;;;;;;1.06;74.43;100528.50;5074739;28;20489;-79
2021/01/31 09:53:38;;;;;;;30.83;16.37;;;;;;;1.32;73.50;100524.03;5087807;28;19912;-78
2021/01/31 09:56:11;;;;;;;31.03;17.17;;;;;;;1.24;74.46;100524.44;5085060;28;20088;-81
2021/01/31 09:58:45;;;;;;;34.43;17.10;;;;;;;1.52;74.47;100523.44;5063796;28;20095;-79
2021/01/31 10:01:25;;;;;;;29.07;16.03;;;;;;;1.36;72.33;100524.28;5083572;28;20043;-79
2021/01/31 10:04:00;;;;;;;27.77;15.10;;;;;;;0.67;73.99;100527.09;5079979;28;20554;-80
2021/01/31 10:06:29;;;;;;;28.17;15.03;;;;;;;0.56;75.97;100531.50;5064393;28;20055;-80
2021/01/31 10:08:54;;;;;;;33.13;16.90;;;;;;;0.60;76.01;100520.78;5081425;28;20021;-80
2021/01/31 10:11:30;;;;;;;29.45;15.93;;;;;;;0.99;74.32;100516.31;5066883;28;20089;-79
2021/01/31 10:13:57;;;;;;;29.15;15.85;;;;;;;1.08;72.73;100506.69;5071957;28;20114;-78
2021/01/31 10:16:28;;;;;;;;;;;;;;;1.12;73.04;100521.25;5081548;28;20051;-79
2021/01/31 10:18:54;;;;;;;32.10;17.23;;;;;;;1.94;72.60;100516.38;5079323;28;19912;-81
2021/01/31 10:21:25;;;;;;;31.55;15.90;;;;;;;2.03;73.20;100509.28;5082831;28;20023;-80
2021/01/31 10:24:19;;;;;;;27.90;15.10;;;;;;;2.27;70.43;100505.47;5067494;28;20187;-81
2021/01/31 10:26:45;;;;;;;25.33;14.07;;;;;;;2.82;70.15;100508.22;5076505;28;20415;-81
2021/01/31 10:29:20;;;;;;;30.08;16.42;;;;;;;2.72;68.92;100504.38;5082015;28;20024;-80
2021/01/31 10:31:46;;;;;;;25.65;15.27;;;;;;;2.88;69.34;100500.91;5067959;28;20052;-80
2021/01/31 10:34:11;;;;;;;24.52;14.35;;;;;;;3.38;66.88;100493.19;5072484;28;20473;-80
2021/01/31 10:36:42;;;;;;;25.93;15.10;;;;;;;3.53;65.62;100487.94;5083636;28;20070;-79
2021/01/31 10:39:13;;;;;;;24.97;14.57;;;;;;;4.16;64.67;100480.56;5063406;28;20275;-77
2021/01/31 10:41:46;;;;;;;29.47;15.53;;;;;;;3.80;63.66;100490.00;5076648;28;20115;-77
2021/01/31 10:44:20;;;;;;;25.67;14.60;;;;;;;3.78;67.64;100489.94;5066316;28;20028;-81
2021/01/31 10:46:46;;;;;;;29.27;16.57;;;;;;;3.61;66.25;100484.09;5078610;28;20035;-80
2021/01/31 10:49:11;;;;;;;28.30;16.58;;;;;;;3.20;66.43;100488.91;5087696;28;20430;-80
2021/01/31 10:51:37;;;;;;;24.38;13.70;;;;;;;3.19;66.48;100480.41;5088675;28;20032;-81
2021/01/31 10:54:04;;;;;;;27.83;15.98;;;;;;;3.51;67.69;100479.38;5075573;28;20512;-77
2021/01/31 10:56:29;;;;;;;27.63;15.90;;;;;;;3.74;68.10;100470.28;5105695;28;20020;-79
2021/01/31 10:58:55;;;;;;;25.17;14.40;;;;;;;4.42;62.09;100467.31;5076289;28;20020;-79
2021/01/31 11:01:21;;;;;;;25.88;14.27;;;;;;;4.18;63.14;100456.97;5073310;28;20281;-80
2021/01/31 11:03:47;;;;;;;25.30;15.35;;;;;;;4.37;63.90;100448.47;5083653;28;20035;-79
2021/01/31 11:06:12;;;;;;;26.60;15.35;;;;;;;5.13;61.61;100448.13;5074160;28;20033;-77
2021/01/31 11:08:37;;;;;;;22.92;13.45;;;;;;;4.49;61.15;100443.00;5069304;28;20022;-75
2021/01/31 11:11:04;;;;;;;25.83;14.53;;;;;;;3.00;66.45;100440.63;5083179;28;20374;-78
2021/01/31 11:13:31;;;;;;;23.20;13.27;;;;;;;3.37;65.78;100437.28;5059907;28;20256;-79
2021/01/31 11:16:00;;;;;;;23.77;14.00;;;;;;;2.70;66.64;100429.03;5079106;28;20049;-78
2021/01/31 11:18:26;;;;;;;22.83;13.17;;;;;;;3.16;65.99;100426.13;5071715;28;20051;-79
2021/01/31 11:20:51;;;;;;;23.50;13.95;;;;;;;3.44;65.58;100413.88;5073850;28;20033;-79
2021/01/31 11:23:17;;;;;;;22.92;13.00;;;;;;;3.70;64.19;100410.84;5087191;28;20028;-79
2021/01/31 11:25:44;;;;;;;24.15;13.82;;;;;;;3.69;63.46;100395.53;5060550;28;20054;-78
2021/01/31 11:28:09;;;;;;;24.87;14.43;;;;;;;3.86;63.23;100394.59;5068916;28;20028;-78
2021/01/31 11:30:35;;;;;;;25.48;14.45;;;;;;;3.64;63.59;100382.66;5086032;28;20440;-77
2021/01/31 11:33:01;;;;;;;22.63;12.90;;;;;;;4.00;63.57;100387.56;5086415;28;20054;-78